sensor_id;sensor_type;location;lat;lon;timestamp;P1;durP1;ratioP1;P2;durP2;ratioP2
20245;SDS011;10281;54.406;18.556;2022-10-03T00:00:27;2.30;;;1.10;;
20245;SDS011;10281;54.406;18.556;2022-10-03T00:03:11;3.13;;;1.00;;
20245;SDS011;10281;54.406;18.556;2022-10-03T00:06:47;4.97;;;1.20;;
20245;SDS011;10281;54.406;18.556;2022-10-03T00:13:56;1.53;;;1.40;;
20245;SDS011;10281;54.406;18.556;2022-10-03T00:16:34;2.70;;;1.00;;
20245;SDS011;10281;54.406;18.556;2022-10-03T00:19:21;1.73;;;0.93;;
20245;SDS011;10281;54.406;18.556;2022-10-03T00:21:45;1.57;;;0.93;;
20245;SDS011;10281;54.406;18.556;2022-10-03T00:24:24;1.67;;;1.13;;
20245;SDS011;10281;54.406;18.556;2022-10-03T00:27:02;2.03;;;1.10;;
20245;SDS011;10281;54.406;18.556;2022-10-03T00:30:18;4.40;;;1.10;;
20245;SDS011;10281;54.406;18.556;2022-10-03T00:32:54;3.50;;;1.20;;
20245;SDS011;10281;54.406;18.556;2022-10-03T00:35:28;1.97;;;1.10;;
20245;SDS011;10281;54.406;18.556;2022-10-03T00:38:25;2.33;;;1.00;;
20245;SDS011;10281;54.406;18.556;2022-10-03T00:42:28;2.37;;;1.20;;
20245;SDS011;10281;54.406;18.556;2022-10-03T00:44:12;1.80;;;1.00;;
20245;SDS011;10281;54.406;18.556;2022-10-03T00:51:59;1.90;;;1.37;;
20245;SDS011;10281;54.406;18.556;2022-10-03T00:54:40;2.63;;;1.43;;
20245;SDS011;10281;54.406;18.556;2022-10-03T00:57:18;2.47;;;1.13;;
20245;SDS011;10281;54.406;18.556;2022-10-03T01:02:46;3.60;;;1.13;;
20245;SDS011;10281;54.406;18.556;2022-10-03T01:05:18;2.03;;;1.23;;
20245;SDS011;10281;54.406;18.556;2022-10-03T01:08:25;1.70;;;1.20;;
20245;SDS011;10281;54.406;18.556;2022-10-03T01:13:30;3.13;;;1.00;;
20245;SDS011;10281;54.406;18.556;2022-10-03T01:16:20;2.13;;;1.23;;
20245;SDS011;10281;54.406;18.556;2022-10-03T01:21:40;2.80;;;1.20;;
20245;SDS011;10281;54.406;18.556;2022-10-03T01:24:17;2.27;;;1.20;;
20245;SDS011;10281;54.406;18.556;2022-10-03T01:26:55;1.73;;;1.10;;
20245;SDS011;10281;54.406;18.556;2022-10-03T01:29:42;1.80;;;1.13;;
20245;SDS011;10281;54.406;18.556;2022-10-03T01:32:23;1.30;;;1.20;;
20245;SDS011;10281;54.406;18.556;2022-10-03T01:34:59;2.07;;;1.20;;
20245;SDS011;10281;54.406;18.556;2022-10-03T01:37:28;2.77;;;1.60;;
20245;SDS011;10281;54.406;18.556;2022-10-03T01:40:06;4.30;;;1.30;;
20245;SDS011;10281;54.406;18.556;2022-10-03T01:42:37;1.23;;;0.90;;
20245;SDS011;10281;54.406;18.556;2022-10-03T01:45:42;2.30;;;1.20;;
20245;SDS011;10281;54.406;18.556;2022-10-03T01:48:18;2.60;;;1.30;;
20245;SDS011;10281;54.406;18.556;2022-10-03T01:50:54;2.97;;;1.10;;
20245;SDS011;10281;54.406;18.556;2022-10-03T01:53:34;3.57;;;1.50;;
20245;SDS011;10281;54.406;18.556;2022-10-03T01:56:25;3.93;;;1.37;;
20245;SDS011;10281;54.406;18.556;2022-10-03T01:58:57;3.73;;;1.80;;
20245;SDS011;10281;54.406;18.556;2022-10-03T02:01:33;3.17;;;1.40;;
20245;SDS011;10281;54.406;18.556;2022-10-03T02:04:19;3.33;;;1.50;;
20245;SDS011;10281;54.406;18.556;2022-10-03T02:06:57;2.13;;;1.17;;
20245;SDS011;10281;54.406;18.556;2022-10-03T02:12:34;2.37;;;1.50;;
20245;SDS011;10281;54.406;18.556;2022-10-03T02:15:13;2.47;;;1.37;;
20245;SDS011;10281;54.406;18.556;2022-10-03T02:20:35;2.30;;;1.30;;
20245;SDS011;10281;54.406;18.556;2022-10-03T02:23:21;2.67;;;1.50;;
20245;SDS011;10281;54.406;18.556;2022-10-03T02:31:43;1.50;;;1.40;;
20245;SDS011;10281;54.406;18.556;2022-10-03T02:34:41;2.57;;;1.23;;
20245;SDS011;10281;54.406;18.556;2022-10-03T02:40:16;2.93;;;1.40;;
20245;SDS011;10281;54.406;18.556;2022-10-03T02:43:15;3.17;;;1.43;;
20245;SDS011;10281;54.406;18.556;2022-10-03T02:45:44;3.00;;;1.50;;
20245;SDS011;10281;54.406;18.556;2022-10-03T02:48:36;3.90;;;1.50;;
20245;SDS011;10281;54.406;18.556;2022-10-03T02:56:56;3.77;;;1.90;;
20245;SDS011;10281;54.406;18.556;2022-10-03T03:00:15;3.00;;;2.23;;
20245;SDS011;10281;54.406;18.556;2022-10-03T03:02:34;4.20;;;2.30;;
20245;SDS011;10281;54.406;18.556;2022-10-03T03:05:43;5.30;;;2.60;;
20245;SDS011;10281;54.406;18.556;2022-10-03T03:10:54;4.17;;;2.80;;
20245;SDS011;10281;54.406;18.556;2022-10-03T03:13:30;4.80;;;2.70;;
20245;SDS011;10281;54.406;18.556;2022-10-03T03:16:06;2.70;;;2.50;;
20245;SDS011;10281;54.406;18.556;2022-10-03T03:18:49;4.30;;;2.90;;
20245;SDS011;10281;54.406;18.556;2022-10-03T03:21:25;3.40;;;2.67;;
20245;SDS011;10281;54.406;18.556;2022-10-03T03:23:58;3.67;;;3.07;;
20245;SDS011;10281;54.406;18.556;2022-10-03T03:26:45;5.47;;;2.90;;
20245;SDS011;10281;54.406;18.556;2022-10-03T03:29:46;5.33;;;2.90;;
20245;SDS011;10281;54.406;18.556;2022-10-03T03:32:21;6.77;;;3.20;;
20245;SDS011;10281;54.406;18.556;2022-10-03T03:35:01;5.83;;;3.10;;
20245;SDS011;10281;54.406;18.556;2022-10-03T03:37:41;5.63;;;2.93;;
20245;SDS011;10281;54.406;18.556;2022-10-03T03:40:18;5.03;;;3.33;;
20245;SDS011;10281;54.406;18.556;2022-10-03T03:48:47;4.63;;;3.63;;
20245;SDS011;10281;54.406;18.556;2022-10-03T03:51:36;6.53;;;3.40;;
20245;SDS011;10281;54.406;18.556;2022-10-03T03:54:12;7.43;;;3.67;;
20245;SDS011;10281;54.406;18.556;2022-10-03T03:59:37;4.37;;;3.20;;
20245;SDS011;10281;54.406;18.556;2022-10-03T04:02:16;8.50;;;3.90;;
20245;SDS011;10281;54.406;18.556;2022-10-03T04:08:01;5.03;;;3.77;;
20245;SDS011;10281;54.406;18.556;2022-10-03T04:10:16;5.03;;;3.60;;
20245;SDS011;10281;54.406;18.556;2022-10-03T04:12:50;4.77;;;3.60;;
20245;SDS011;10281;54.406;18.556;2022-10-03T04:15:27;5.07;;;3.43;;
20245;SDS011;10281;54.406;18.556;2022-10-03T04:17:59;5.60;;;3.40;;
20245;SDS011;10281;54.406;18.556;2022-10-03T04:26:38;4.63;;;3.40;;
20245;SDS011;10281;54.406;18.556;2022-10-03T04:29:27;5.70;;;3.20;;
20245;SDS011;10281;54.406;18.556;2022-10-03T04:32:22;3.87;;;3.03;;
20245;SDS011;10281;54.406;18.556;2022-10-03T04:37:50;6.30;;;3.37;;
20245;SDS011;10281;54.406;18.556;2022-10-03T04:40:26;6.77;;;3.67;;
20245;SDS011;10281;54.406;18.556;2022-10-03T04:43:13;4.53;;;3.13;;
20245;SDS011;10281;54.406;18.556;2022-10-03T04:45:52;5.73;;;3.00;;
20245;SDS011;10281;54.406;18.556;2022-10-03T04:48:26;7.27;;;3.33;;
20245;SDS011;10281;54.406;18.556;2022-10-03T04:53:54;5.07;;;3.57;;
20245;SDS011;10281;54.406;18.556;2022-10-03T05:02:07;7.73;;;4.90;;
20245;SDS011;10281;54.406;18.556;2022-10-03T05:04:43;6.73;;;3.90;;
20245;SDS011;10281;54.406;18.556;2022-10-03T05:07:15;7.07;;;4.50;;
20245;SDS011;10281;54.406;18.556;2022-10-03T05:09:49;8.73;;;4.70;;
20245;SDS011;10281;54.406;18.556;2022-10-03T05:12:51;5.80;;;4.17;;
20245;SDS011;10281;54.406;18.556;2022-10-03T05:15:25;7.60;;;4.40;;
20245;SDS011;10281;54.406;18.556;2022-10-03T05:18:16;5.63;;;4.43;;
20245;SDS011;10281;54.406;18.556;2022-10-03T05:20:47;7.07;;;5.27;;
20245;SDS011;10281;54.406;18.556;2022-10-03T05:23:45;7.50;;;5.30;;
20245;SDS011;10281;54.406;18.556;2022-10-03T05:26:23;8.83;;;5.50;;
20245;SDS011;10281;54.406;18.556;2022-10-03T05:31:47;9.80;;;4.90;;
20245;SDS011;10281;54.406;18.556;2022-10-03T05:34:22;7.13;;;4.47;;
20245;SDS011;10281;54.406;18.556;2022-10-03T05:36:56;4.83;;;4.23;;
20245;SDS011;10281;54.406;18.556;2022-10-03T05:39:26;6.57;;;4.17;;
20245;SDS011;10281;54.406;18.556;2022-10-03T05:47:28;6.37;;;4.10;;
20245;SDS011;10281;54.406;18.556;2022-10-03T05:52:45;4.20;;;3.80;;
20245;SDS011;10281;54.406;18.556;2022-10-03T05:55:29;4.87;;;3.37;;
20245;SDS011;10281;54.406;18.556;2022-10-03T06:01:24;6.37;;;3.70;;
20245;SDS011;10281;54.406;18.556;2022-10-03T06:03:59;4.63;;;3.13;;
20245;SDS011;10281;54.406;18.556;2022-10-03T06:06:50;6.93;;;4.00;;
20245;SDS011;10281;54.406;18.556;2022-10-03T06:09:34;5.53;;;3.27;;
20245;SDS011;10281;54.406;18.556;2022-10-03T06:12:04;6.50;;;3.77;;
20245;SDS011;10281;54.406;18.556;2022-10-03T06:14:59;10.30;;;4.83;;
20245;SDS011;10281;54.406;18.556;2022-10-03T06:20:54;5.17;;;3.50;;
20245;SDS011;10281;54.406;18.556;2022-10-03T06:26:18;6.57;;;3.00;;
20245;SDS011;10281;54.406;18.556;2022-10-03T06:28:55;4.13;;;2.70;;
20245;SDS011;10281;54.406;18.556;2022-10-03T06:31:32;3.37;;;2.70;;
20245;SDS011;10281;54.406;18.556;2022-10-03T06:34:19;4.40;;;2.60;;
20245;SDS011;10281;54.406;18.556;2022-10-03T06:36:58;3.40;;;2.77;;
20245;SDS011;10281;54.406;18.556;2022-10-03T06:39:33;2.73;;;2.20;;
20245;SDS011;10281;54.406;18.556;2022-10-03T06:42:14;5.83;;;2.73;;
20245;SDS011;10281;54.406;18.556;2022-10-03T06:44:47;4.73;;;2.17;;
20245;SDS011;10281;54.406;18.556;2022-10-03T06:47:55;2.60;;;1.80;;
20245;SDS011;10281;54.406;18.556;2022-10-03T06:50:37;3.50;;;1.50;;
20245;SDS011;10281;54.406;18.556;2022-10-03T06:53:20;2.90;;;1.87;;
20245;SDS011;10281;54.406;18.556;2022-10-03T06:55:54;3.00;;;1.70;;
20245;SDS011;10281;54.406;18.556;2022-10-03T06:59:01;3.70;;;1.70;;
20245;SDS011;10281;54.406;18.556;2022-10-03T07:01:21;6.00;;;1.90;;
20245;SDS011;10281;54.406;18.556;2022-10-03T07:04:15;2.80;;;1.70;;
20245;SDS011;10281;54.406;18.556;2022-10-03T07:09:44;1.83;;;1.47;;
20245;SDS011;10281;54.406;18.556;2022-10-03T07:15:30;5.07;;;1.53;;
20245;SDS011;10281;54.406;18.556;2022-10-03T07:18:28;3.83;;;1.70;;
20245;SDS011;10281;54.406;18.556;2022-10-03T07:21:15;4.10;;;2.00;;
20245;SDS011;10281;54.406;18.556;2022-10-03T07:23:47;3.00;;;1.60;;
20245;SDS011;10281;54.406;18.556;2022-10-03T07:26:43;5.20;;;1.67;;
20245;SDS011;10281;54.406;18.556;2022-10-03T07:29:14;5.67;;;2.20;;
20245;SDS011;10281;54.406;18.556;2022-10-03T07:31:53;1.83;;;1.40;;
20245;SDS011;10281;54.406;18.556;2022-10-03T07:37:16;2.30;;;1.60;;
20245;SDS011;10281;54.406;18.556;2022-10-03T07:39:59;5.97;;;1.97;;
20245;SDS011;10281;54.406;18.556;2022-10-03T07:42:34;4.00;;;2.03;;
20245;SDS011;10281;54.406;18.556;2022-10-03T07:45:27;2.10;;;1.43;;
20245;SDS011;10281;54.406;18.556;2022-10-03T07:48:04;4.17;;;2.07;;
20245;SDS011;10281;54.406;18.556;2022-10-03T07:51:11;4.07;;;1.77;;
20245;SDS011;10281;54.406;18.556;2022-10-03T07:53:47;4.70;;;1.83;;
20245;SDS011;10281;54.406;18.556;2022-10-03T07:59:23;5.72;;;3.02;;
20245;SDS011;10281;54.406;18.556;2022-10-03T08:02:14;5.23;;;2.40;;
20245;SDS011;10281;54.406;18.556;2022-10-03T08:05:02;5.30;;;1.90;;
20245;SDS011;10281;54.406;18.556;2022-10-03T08:07:42;4.37;;;2.13;;
20245;SDS011;10281;54.406;18.556;2022-10-03T08:10:17;3.23;;;1.33;;
20245;SDS011;10281;54.406;18.556;2022-10-03T08:15:42;5.23;;;1.40;;
20245;SDS011;10281;54.406;18.556;2022-10-03T08:18:23;2.70;;;1.60;;
20245;SDS011;10281;54.406;18.556;2022-10-03T08:20:57;4.10;;;1.50;;
20245;SDS011;10281;54.406;18.556;2022-10-03T08:23:37;2.23;;;1.40;;
20245;SDS011;10281;54.406;18.556;2022-10-03T08:26:09;2.30;;;1.37;;
20245;SDS011;10281;54.406;18.556;2022-10-03T08:28:52;4.40;;;1.47;;
20245;SDS011;10281;54.406;18.556;2022-10-03T08:31:32;3.00;;;1.10;;
20245;SDS011;10281;54.406;18.556;2022-10-03T08:34:40;2.87;;;1.50;;
20245;SDS011;10281;54.406;18.556;2022-10-03T08:42:17;2.47;;;1.50;;
20245;SDS011;10281;54.406;18.556;2022-10-03T08:45:11;3.20;;;1.60;;
20245;SDS011;10281;54.406;18.556;2022-10-03T08:48:12;1.70;;;1.50;;
20245;SDS011;10281;54.406;18.556;2022-10-03T08:50:50;2.67;;;2.43;;
20245;SDS011;10281;54.406;18.556;2022-10-03T08:53:42;3.50;;;2.00;;
20245;SDS011;10281;54.406;18.556;2022-10-03T08:59:37;4.03;;;1.60;;
20245;SDS011;10281;54.406;18.556;2022-10-03T09:01:57;1.90;;;1.70;;
20245;SDS011;10281;54.406;18.556;2022-10-03T09:04:38;1.90;;;1.70;;
20245;SDS011;10281;54.406;18.556;2022-10-03T09:07:18;1.60;;;1.50;;
20245;SDS011;10281;54.406;18.556;2022-10-03T09:16:27;2.30;;;1.80;;
20245;SDS011;10281;54.406;18.556;2022-10-03T09:21:36;1.93;;;1.50;;
20245;SDS011;10281;54.406;18.556;2022-10-03T09:26:57;2.63;;;1.60;;
20245;SDS011;10281;54.406;18.556;2022-10-03T09:29:46;4.40;;;1.70;;
20245;SDS011;10281;54.406;18.556;2022-10-03T09:37:39;5.20;;;1.80;;
20245;SDS011;10281;54.406;18.556;2022-10-03T09:40:17;3.57;;;1.73;;
20245;SDS011;10281;54.406;18.556;2022-10-03T09:43:05;2.47;;;1.70;;
20245;SDS011;10281;54.406;18.556;2022-10-03T09:45:42;2.57;;;2.10;;
20245;SDS011;10281;54.406;18.556;2022-10-03T09:48:20;2.80;;;1.90;;
20245;SDS011;10281;54.406;18.556;2022-10-03T09:50:57;2.90;;;1.80;;
20245;SDS011;10281;54.406;18.556;2022-10-03T09:53:31;3.57;;;1.70;;
20245;SDS011;10281;54.406;18.556;2022-10-03T10:01:29;2.40;;;1.70;;
20245;SDS011;10281;54.406;18.556;2022-10-03T10:04:07;6.80;;;3.13;;
20245;SDS011;10281;54.406;18.556;2022-10-03T10:10:09;4.17;;;2.10;;
20245;SDS011;10281;54.406;18.556;2022-10-03T10:12:46;3.10;;;1.37;;
20245;SDS011;10281;54.406;18.556;2022-10-03T10:15:19;2.50;;;1.47;;
20245;SDS011;10281;54.406;18.556;2022-10-03T10:19:14;4.20;;;1.80;;
20245;SDS011;10281;54.406;18.556;2022-10-03T10:21:53;5.87;;;2.63;;
20245;SDS011;10281;54.406;18.556;2022-10-03T10:27:01;14.07;;;4.17;;
20245;SDS011;10281;54.406;18.556;2022-10-03T10:29:34;12.80;;;3.73;;
20245;SDS011;10281;54.406;18.556;2022-10-03T10:32:16;12.83;;;4.20;;
20245;SDS011;10281;54.406;18.556;2022-10-03T10:35:05;8.03;;;2.97;;
20245;SDS011;10281;54.406;18.556;2022-10-03T10:37:42;8.37;;;3.30;;
20245;SDS011;10281;54.406;18.556;2022-10-03T10:40:29;10.77;;;3.80;;
20245;SDS011;10281;54.406;18.556;2022-10-03T10:57:54;13.13;;;4.23;;
20245;SDS011;10281;54.406;18.556;2022-10-03T11:00:37;11.97;;;3.30;;
20245;SDS011;10281;54.406;18.556;2022-10-03T11:02:43;2.37;;;1.60;;
20245;SDS011;10281;54.406;18.556;2022-10-03T11:08:14;3.30;;;1.63;;
20245;SDS011;10281;54.406;18.556;2022-10-03T11:11:03;3.50;;;1.73;;
20245;SDS011;10281;54.406;18.556;2022-10-03T11:19:31;3.03;;;1.30;;
20245;SDS011;10281;54.406;18.556;2022-10-03T11:22:11;11.57;;;3.80;;
20245;SDS011;10281;54.406;18.556;2022-10-03T11:30:28;6.83;;;3.43;;
20245;SDS011;10281;54.406;18.556;2022-10-03T11:35:43;7.27;;;3.30;;
20245;SDS011;10281;54.406;18.556;2022-10-03T11:38:16;6.73;;;2.83;;
20245;SDS011;10281;54.406;18.556;2022-10-03T11:40:57;3.73;;;2.10;;
20245;SDS011;10281;54.406;18.556;2022-10-03T11:46:27;3.87;;;2.80;;
20245;SDS011;10281;54.406;18.556;2022-10-03T11:48:58;2.53;;;1.77;;
20245;SDS011;10281;54.406;18.556;2022-10-03T11:54:37;1.80;;;1.37;;
20245;SDS011;10281;54.406;18.556;2022-10-03T12:00:04;3.90;;;2.47;;
20245;SDS011;10281;54.406;18.556;2022-10-03T12:02:42;4.53;;;2.87;;
20245;SDS011;10281;54.406;18.556;2022-10-03T12:05:18;2.80;;;1.77;;
20245;SDS011;10281;54.406;18.556;2022-10-03T12:08:57;2.70;;;1.60;;
20245;SDS011;10281;54.406;18.556;2022-10-03T12:10:48;5.23;;;2.83;;
20245;SDS011;10281;54.406;18.556;2022-10-03T12:13:27;1.97;;;1.70;;
20245;SDS011;10281;54.406;18.556;2022-10-03T12:15:53;3.63;;;1.70;;
20245;SDS011;10281;54.406;18.556;2022-10-03T12:18:29;2.90;;;2.47;;
20245;SDS011;10281;54.406;18.556;2022-10-03T12:21:20;2.27;;;1.83;;
20245;SDS011;10281;54.406;18.556;2022-10-03T12:23:52;2.17;;;1.80;;
20245;SDS011;10281;54.406;18.556;2022-10-03T12:29:15;5.10;;;1.80;;
20245;SDS011;10281;54.406;18.556;2022-10-03T12:34:36;2.30;;;1.53;;
20245;SDS011;10281;54.406;18.556;2022-10-03T12:37:24;2.40;;;1.50;;
20245;SDS011;10281;54.406;18.556;2022-10-03T12:40:00;1.63;;;1.40;;
20245;SDS011;10281;54.406;18.556;2022-10-03T12:42:32;3.30;;;1.40;;
20245;SDS011;10281;54.406;18.556;2022-10-03T12:45:09;3.10;;;1.47;;
20245;SDS011;10281;54.406;18.556;2022-10-03T12:47:56;2.30;;;1.43;;
20245;SDS011;10281;54.406;18.556;2022-10-03T12:50:40;3.40;;;1.70;;
20245;SDS011;10281;54.406;18.556;2022-10-03T12:54:20;1.83;;;1.50;;
20245;SDS011;10281;54.406;18.556;2022-10-03T12:56:10;2.37;;;1.73;;
20245;SDS011;10281;54.406;18.556;2022-10-03T12:59:16;2.77;;;1.57;;
20245;SDS011;10281;54.406;18.556;2022-10-03T13:01:34;2.83;;;1.80;;
20245;SDS011;10281;54.406;18.556;2022-10-03T13:04:18;2.10;;;1.90;;
20245;SDS011;10281;54.406;18.556;2022-10-03T13:06:52;1.80;;;1.60;;
20245;SDS011;10281;54.406;18.556;2022-10-03T13:12:16;3.63;;;2.00;;
20245;SDS011;10281;54.406;18.556;2022-10-03T13:20:32;3.43;;;1.93;;
20245;SDS011;10281;54.406;18.556;2022-10-03T13:23:07;2.53;;;1.90;;
20245;SDS011;10281;54.406;18.556;2022-10-03T13:25:42;4.47;;;2.20;;
20245;SDS011;10281;54.406;18.556;2022-10-03T13:28:13;4.30;;;2.10;;
20245;SDS011;10281;54.406;18.556;2022-10-03T13:30:48;3.93;;;2.00;;
20245;SDS011;10281;54.406;18.556;2022-10-03T13:33:22;3.20;;;2.03;;
20245;SDS011;10281;54.406;18.556;2022-10-03T13:35:56;2.13;;;1.90;;
20245;SDS011;10281;54.406;18.556;2022-10-03T13:38:48;3.23;;;2.20;;
20245;SDS011;10281;54.406;18.556;2022-10-03T13:41:32;2.80;;;2.00;;
20245;SDS011;10281;54.406;18.556;2022-10-03T13:44:14;2.63;;;1.83;;
20245;SDS011;10281;54.406;18.556;2022-10-03T13:46:44;3.27;;;2.03;;
20245;SDS011;10281;54.406;18.556;2022-10-03T13:49:20;3.87;;;2.40;;
20245;SDS011;10281;54.406;18.556;2022-10-03T13:52:00;2.37;;;2.17;;
20245;SDS011;10281;54.406;18.556;2022-10-03T13:54:45;3.63;;;2.00;;
20245;SDS011;10281;54.406;18.556;2022-10-03T13:57:16;3.00;;;2.10;;
20245;SDS011;10281;54.406;18.556;2022-10-03T13:59:53;2.87;;;2.10;;
20245;SDS011;10281;54.406;18.556;2022-10-03T14:02:32;2.37;;;1.97;;
20245;SDS011;10281;54.406;18.556;2022-10-03T14:05:04;3.07;;;2.20;;
20245;SDS011;10281;54.406;18.556;2022-10-03T14:07:52;2.30;;;2.10;;
20245;SDS011;10281;54.406;18.556;2022-10-03T14:10:43;3.07;;;2.20;;
20245;SDS011;10281;54.406;18.556;2022-10-03T14:13:07;3.53;;;2.07;;
20245;SDS011;10281;54.406;18.556;2022-10-03T14:15:55;2.73;;;2.27;;
20245;SDS011;10281;54.406;18.556;2022-10-03T14:18:34;3.17;;;2.10;;
20245;SDS011;10281;54.406;18.556;2022-10-03T14:23:44;4.17;;;2.57;;
20245;SDS011;10281;54.406;18.556;2022-10-03T14:26:16;4.10;;;3.23;;
20245;SDS011;10281;54.406;18.556;2022-10-03T14:29:05;4.73;;;2.70;;
20245;SDS011;10281;54.406;18.556;2022-10-03T14:31:36;2.90;;;2.40;;
20245;SDS011;10281;54.406;18.556;2022-10-03T14:34:10;2.77;;;2.50;;
20245;SDS011;10281;54.406;18.556;2022-10-03T14:36:42;6.23;;;3.20;;
20245;SDS011;10281;54.406;18.556;2022-10-03T14:39:16;4.60;;;2.83;;
20245;SDS011;10281;54.406;18.556;2022-10-03T14:44:39;4.20;;;2.73;;
20245;SDS011;10281;54.406;18.556;2022-10-03T14:47:10;6.20;;;3.97;;
20245;SDS011;10281;54.406;18.556;2022-10-03T14:49:45;6.07;;;3.40;;
20245;SDS011;10281;54.406;18.556;2022-10-03T14:54:53;5.90;;;3.87;;
20245;SDS011;10281;54.406;18.556;2022-10-03T14:57:25;4.23;;;3.83;;
20245;SDS011;10281;54.406;18.556;2022-10-03T14:59:53;4.83;;;3.20;;
20245;SDS011;10281;54.406;18.556;2022-10-03T15:02:29;4.00;;;3.57;;
20245;SDS011;10281;54.406;18.556;2022-10-03T15:05:03;4.47;;;3.20;;
20245;SDS011;10281;54.406;18.556;2022-10-03T15:07:48;6.10;;;3.50;;
20245;SDS011;10281;54.406;18.556;2022-10-03T15:10:20;4.80;;;3.63;;
20245;SDS011;10281;54.406;18.556;2022-10-03T15:12:52;4.70;;;3.33;;
20245;SDS011;10281;54.406;18.556;2022-10-03T15:15:25;4.93;;;3.57;;
20245;SDS011;10281;54.406;18.556;2022-10-03T15:17:56;4.83;;;3.30;;
20245;SDS011;10281;54.406;18.556;2022-10-03T15:20:28;3.90;;;3.60;;
20245;SDS011;10281;54.406;18.556;2022-10-03T15:23:02;4.27;;;3.63;;
20245;SDS011;10281;54.406;18.556;2022-10-03T15:25:34;4.03;;;3.63;;
20245;SDS011;10281;54.406;18.556;2022-10-03T15:28:04;6.77;;;4.23;;
20245;SDS011;10281;54.406;18.556;2022-10-03T15:30:34;4.30;;;3.73;;
20245;SDS011;10281;54.406;18.556;2022-10-03T15:33:09;5.97;;;4.00;;
20245;SDS011;10281;54.406;18.556;2022-10-03T15:35:40;6.67;;;5.20;;
20245;SDS011;10281;54.406;18.556;2022-10-03T15:38:13;5.83;;;4.87;;
20245;SDS011;10281;54.406;18.556;2022-10-03T15:40:46;7.10;;;4.70;;
20245;SDS011;10281;54.406;18.556;2022-10-03T15:43:31;6.37;;;4.63;;
20245;SDS011;10281;54.406;18.556;2022-10-03T15:46:03;5.10;;;4.60;;
20245;SDS011;10281;54.406;18.556;2022-10-03T15:48:30;6.73;;;5.07;;
20245;SDS011;10281;54.406;18.556;2022-10-03T15:50:58;5.53;;;4.90;;
20245;SDS011;10281;54.406;18.556;2022-10-03T15:53:28;6.40;;;5.00;;
20245;SDS011;10281;54.406;18.556;2022-10-03T15:56:31;7.60;;;6.03;;
20245;SDS011;10281;54.406;18.556;2022-10-03T15:58:47;13.20;;;10.47;;
20245;SDS011;10281;54.406;18.556;2022-10-03T16:01:22;9.27;;;7.20;;
20245;SDS011;10281;54.406;18.556;2022-10-03T16:03:54;8.47;;;6.60;;
20245;SDS011;10281;54.406;18.556;2022-10-03T16:06:58;7.50;;;6.27;;
20245;SDS011;10281;54.406;18.556;2022-10-03T16:09:15;6.03;;;5.20;;
20245;SDS011;10281;54.406;18.556;2022-10-03T16:12:16;7.43;;;6.03;;
20245;SDS011;10281;54.406;18.556;2022-10-03T16:14:56;8.40;;;6.17;;
20245;SDS011;10281;54.406;18.556;2022-10-03T16:17:30;7.23;;;6.30;;
20245;SDS011;10281;54.406;18.556;2022-10-03T16:20:05;7.77;;;6.40;;
20245;SDS011;10281;54.406;18.556;2022-10-03T16:22:44;8.33;;;6.43;;
20245;SDS011;10281;54.406;18.556;2022-10-03T16:25:17;6.17;;;5.63;;
20245;SDS011;10281;54.406;18.556;2022-10-03T16:27:51;6.87;;;6.17;;
20245;SDS011;10281;54.406;18.556;2022-10-03T16:30:21;9.40;;;6.67;;
20245;SDS011;10281;54.406;18.556;2022-10-03T16:32:54;8.43;;;6.80;;
20245;SDS011;10281;54.406;18.556;2022-10-03T16:35:27;9.07;;;6.80;;
20245;SDS011;10281;54.406;18.556;2022-10-03T16:37:54;9.30;;;8.00;;
20245;SDS011;10281;54.406;18.556;2022-10-03T16:40:21;12.40;;;9.70;;
20245;SDS011;10281;54.406;18.556;2022-10-03T16:42:50;10.60;;;8.37;;
20245;SDS011;10281;54.406;18.556;2022-10-03T16:45:27;11.37;;;9.37;;
20245;SDS011;10281;54.406;18.556;2022-10-03T16:47:57;10.00;;;7.83;;
20245;SDS011;10281;54.406;18.556;2022-10-03T16:50:32;13.07;;;10.37;;
20245;SDS011;10281;54.406;18.556;2022-10-03T16:53:01;19.63;;;15.70;;
20245;SDS011;10281;54.406;18.556;2022-10-03T16:55:33;12.47;;;10.87;;
20245;SDS011;10281;54.406;18.556;2022-10-03T16:58:04;9.93;;;8.20;;
20245;SDS011;10281;54.406;18.556;2022-10-03T17:00:48;10.67;;;9.43;;
20245;SDS011;10281;54.406;18.556;2022-10-03T17:03:23;9.93;;;7.77;;
20245;SDS011;10281;54.406;18.556;2022-10-03T17:05:52;10.07;;;8.70;;
20245;SDS011;10281;54.406;18.556;2022-10-03T17:08:25;11.57;;;8.37;;
20245;SDS011;10281;54.406;18.556;2022-10-03T17:10:55;12.20;;;10.20;;
20245;SDS011;10281;54.406;18.556;2022-10-03T17:13:35;9.30;;;8.03;;
20245;SDS011;10281;54.406;18.556;2022-10-03T17:16:02;10.30;;;7.80;;
20245;SDS011;10281;54.406;18.556;2022-10-03T17:18:37;9.33;;;8.43;;
20245;SDS011;10281;54.406;18.556;2022-10-03T17:21:28;7.20;;;6.50;;
20245;SDS011;10281;54.406;18.556;2022-10-03T17:24:02;7.73;;;6.10;;
20245;SDS011;10281;54.406;18.556;2022-10-03T17:26:33;8.20;;;6.37;;
20245;SDS011;10281;54.406;18.556;2022-10-03T17:29:20;9.97;;;8.03;;
20245;SDS011;10281;54.406;18.556;2022-10-03T17:31:54;9.77;;;6.87;;
20245;SDS011;10281;54.406;18.556;2022-10-03T17:34:40;7.00;;;6.00;;
20245;SDS011;10281;54.406;18.556;2022-10-03T17:43:00;8.23;;;6.60;;
20245;SDS011;10281;54.406;18.556;2022-10-03T17:45:38;8.17;;;6.10;;
20245;SDS011;10281;54.406;18.556;2022-10-03T17:48:09;8.83;;;5.97;;
20245;SDS011;10281;54.406;18.556;2022-10-03T17:50:50;5.67;;;5.10;;
20245;SDS011;10281;54.406;18.556;2022-10-03T17:53:21;7.77;;;6.00;;
20245;SDS011;10281;54.406;18.556;2022-10-03T17:55:55;7.67;;;5.43;;
20245;SDS011;10281;54.406;18.556;2022-10-03T17:58:25;6.53;;;5.20;;
20245;SDS011;10281;54.406;18.556;2022-10-03T18:00:58;6.47;;;5.27;;
20245;SDS011;10281;54.406;18.556;2022-10-03T18:03:28;5.17;;;4.67;;
20245;SDS011;10281;54.406;18.556;2022-10-03T18:06:23;5.10;;;4.40;;
20245;SDS011;10281;54.406;18.556;2022-10-03T18:08:35;5.47;;;4.17;;
20245;SDS011;10281;54.406;18.556;2022-10-03T18:11:17;5.30;;;4.17;;
20245;SDS011;10281;54.406;18.556;2022-10-03T18:13:37;5.10;;;4.13;;
20245;SDS011;10281;54.406;18.556;2022-10-03T18:16:24;5.27;;;3.87;;
20245;SDS011;10281;54.406;18.556;2022-10-03T18:19:29;5.53;;;4.00;;
20245;SDS011;10281;54.406;18.556;2022-10-03T18:21:58;6.33;;;3.90;;
20245;SDS011;10281;54.406;18.556;2022-10-03T18:24:47;4.87;;;3.77;;
20245;SDS011;10281;54.406;18.556;2022-10-03T18:27:25;6.00;;;4.90;;
20245;SDS011;10281;54.406;18.556;2022-10-03T18:30:13;6.57;;;4.50;;
20245;SDS011;10281;54.406;18.556;2022-10-03T18:32:44;4.20;;;3.50;;
20245;SDS011;10281;54.406;18.556;2022-10-03T18:35:15;4.87;;;4.37;;
20245;SDS011;10281;54.406;18.556;2022-10-03T18:40:28;5.20;;;4.43;;
20245;SDS011;10281;54.406;18.556;2022-10-03T18:42:58;3.73;;;3.40;;
20245;SDS011;10281;54.406;18.556;2022-10-03T18:48:11;4.50;;;3.60;;
20245;SDS011;10281;54.406;18.556;2022-10-03T18:50:47;5.43;;;4.20;;
20245;SDS011;10281;54.406;18.556;2022-10-03T18:53:28;3.90;;;3.50;;
20245;SDS011;10281;54.406;18.556;2022-10-03T18:56:01;7.10;;;4.00;;
20245;SDS011;10281;54.406;18.556;2022-10-03T18:58:32;4.83;;;3.67;;
20245;SDS011;10281;54.406;18.556;2022-10-03T19:01:04;4.80;;;3.77;;
20245;SDS011;10281;54.406;18.556;2022-10-03T19:03:34;5.50;;;4.30;;
20245;SDS011;10281;54.406;18.556;2022-10-03T19:06:04;7.50;;;5.57;;
20245;SDS011;10281;54.406;18.556;2022-10-03T19:08:35;6.50;;;4.90;;
20245;SDS011;10281;54.406;18.556;2022-10-03T19:11:08;6.97;;;4.33;;
20245;SDS011;10281;54.406;18.556;2022-10-03T19:13:42;6.07;;;4.40;;
20245;SDS011;10281;54.406;18.556;2022-10-03T19:16:24;5.13;;;4.63;;